Cayce, South Carolina
Current Conditions -  °F | °C
As of 1:53 PM on Friday 28 Nov 2014 (Local Time) from KCUB Reporting Station
Clear Clear  
Wind Chill: 44°   Ceiling: Unl
Heat Index: 47°   Visibility: 10mi
Dew Point: 17°   Wind: 7mph
Humidity: 30%   Direction: 300°WNW
Pressure: 30.33"   Gusts: NA
Location:  33.97°N, 81.05°W
Report Text: KCUB 281853Z AUTO 30006KT 10SM CLR 08/M08 A3033 RMK AO2 SLP272 T00831083
Loading
Personal Weather Stations






























Interactive Weather Map New forecast layout! Learn more

10-Day Weather Forecast

Advertisements
Track Severe Weather on mobile